Kristin D — C6XA6 — position and weather

sailwx.info

Track history (hours):
 
Tides and Currents Weather Stations Pressure Air Temp Water Temp Dewpoint Dewpoint Depression Visibility Wind Speed Wind Dir Waves Ship Positions

Kristin D

Last reported at 2014-Dec-17 13:33 UTC. Time now 2014-Dec-18 22:24 UTC.
Position N 62°29' W 006°51'.

Length 90 m; draft 3.7 m.

Type: Cargo ship. MMSI: 311003700.

Date/timePositionNaut miles runAvg speedWind from/ knotsBaromVisibWave heightAir tempDewpointWater temp
2014-Dec-17 13:33N 62°29' W 006°51'  
2014-Dec-11 10:33N 59°10' W 002°24'1211.8
2014-Dec-11 09:33N 58°59' W 002°32'1212.4
2014-Dec-11 08:33N 58°48' W 002°43'66 3.2
2014-Dec-10 12:05N 57°44' W 002°16'3 5.3
2014-Dec-10 11:33N 57°43' W 002°11'5 5.5
2014-Dec-10 10:33N 57°43' W 002°01'1 0.6
2014-Dec-10 09:33N 57°43' W 002°00'2 2.5
2014-Dec-10 08:33N 57°42' W 001°56'0 0.3
2014-Dec-10 07:33N 57°43' W 001°56'5 4.9
2014-Dec-10 06:32N 57°44' W 002°05'1 1.4
2014-Dec-10 05:33N 57°45' W 002°08'3 3.0
2014-Dec-10 04:33N 57°44' W 002°02'4 3.6
2014-Dec-10 03:33N 57°43' W 001°56'3 3.4
2014-Dec-10 02:33N 57°41' W 001°50'4 3.9
2014-Dec-10 01:33N 57°38' W 001°46'3 3.5
2014-Dec-10 00:33N 57°36' W 001°41'6 6.3
2014-Dec-09 23:33N 57°33' W 001°30'6 5.8
2014-Dec-09 22:33N 57°32' W 001°20'322 8.6
2014-Dec-08 09:08N 57°53' E 008°42'6 9.7
2014-Dec-08 08:33N 57°52' E 008°53'56 6.7
2014-Dec-08 00:12N 57°42' E 010°36'0 0.0
2014-Dec-07 23:33N 57°42' E 010°36'10 7.1
2014-Dec-07 22:10N 57°36' E 010°51'711.7
2014-Dec-07 21:34N 57°32' E 011°02'1111.2
2014-Dec-07 20:33N 57°27' E 011°20'1110.8
2014-Dec-07 19:33N 57°18' E 011°32'2311.2
2014-Dec-07 17:31N 56°57' E 011°46'1010.7
2014-Dec-07 16:33N 56°47' E 011°54'1111.0
2014-Dec-07 15:34N 56°37' E 012°01'  
Track history (hours):
 
Tides and Currents Weather Stations Pressure Air Temp Water Temp Dewpoint Dewpoint Depression Visibility Wind Speed Wind Dir Waves Ship Positions

Kristin D

Last reported at 2014-Dec-17 13:33 UTC. Time now 2014-Dec-18 22:24 UTC.
Position N 62°29' W 006°51'.

Length 90 m; draft 3.7 m.

Type: Cargo ship. MMSI: 311003700.

Date/timePositionNaut miles runAvg speedWind from/ knotsBaromVisibWave heightAir tempDewpointWater temp
2014-Dec-17 13:33N 62°29' W 006°51'  
2014-Dec-11 10:33N 59°10' W 002°24'1211.8
2014-Dec-11 09:33N 58°59' W 002°32'1212.4
2014-Dec-11 08:33N 58°48' W 002°43'66 3.2
2014-Dec-10 12:05N 57°44' W 002°16'3 5.3
2014-Dec-10 11:33N 57°43' W 002°11'5 5.5
2014-Dec-10 10:33N 57°43' W 002°01'1 0.6
2014-Dec-10 09:33N 57°43' W 002°00'2 2.5
2014-Dec-10 08:33N 57°42' W 001°56'0 0.3
2014-Dec-10 07:33N 57°43' W 001°56'5 4.9
2014-Dec-10 06:32N 57°44' W 002°05'1 1.4
2014-Dec-10 05:33N 57°45' W 002°08'3 3.0
2014-Dec-10 04:33N 57°44' W 002°02'4 3.6
2014-Dec-10 03:33N 57°43' W 001°56'3 3.4
2014-Dec-10 02:33N 57°41' W 001°50'4 3.9
2014-Dec-10 01:33N 57°38' W 001°46'3 3.5
2014-Dec-10 00:33N 57°36' W 001°41'6 6.3
2014-Dec-09 23:33N 57°33' W 001°30'6 5.8
2014-Dec-09 22:33N 57°32' W 001°20'322 8.6
2014-Dec-08 09:08N 57°53' E 008°42'6 9.7
2014-Dec-08 08:33N 57°52' E 008°53'56 6.7
2014-Dec-08 00:12N 57°42' E 010°36'0 0.0
2014-Dec-07 23:33N 57°42' E 010°36'10 7.1
2014-Dec-07 22:10N 57°36' E 010°51'711.7
2014-Dec-07 21:34N 57°32' E 011°02'1111.2
2014-Dec-07 20:33N 57°27' E 011°20'1110.8
2014-Dec-07 19:33N 57°18' E 011°32'2311.2
2014-Dec-07 17:31N 56°57' E 011°46'1010.7
2014-Dec-07 16:33N 56°47' E 011°54'1111.0
2014-Dec-07 15:34N 56°37' E 012°01'  

Dump ship's entire track history